createdAt,value
2019-05-12T00:00:39.082Z,37.10
2019-05-12T00:03:19.886Z,38.93
2019-05-12T00:05:49.291Z,39.30
2019-05-12T00:08:38.208Z,42.80
2019-05-12T00:11:19.878Z,37.20
2019-05-12T00:14:01.659Z,36.70
2019-05-12T00:16:43.564Z,37.83
2019-05-12T00:19:25.381Z,36.43
2019-05-12T00:22:07.751Z,41.17
2019-05-12T00:24:49.395Z,35.70
2019-05-12T00:27:30.928Z,38.23
2019-05-12T00:30:14.091Z,38.17
2019-05-12T00:32:57.676Z,39.30
2019-05-12T00:35:39.540Z,38.40
2019-05-12T00:38:21.624Z,31.57
2019-05-12T00:41:06.027Z,30.93
2019-05-12T00:43:48.752Z,30.47
2019-05-12T00:46:30.122Z,26.27
2019-05-12T00:49:11.871Z,28.93
2019-05-12T00:51:53.814Z,21.77
2019-05-12T00:54:37.584Z,22.57
2019-05-12T00:57:19.441Z,21.43
2019-05-12T01:00:01.041Z,21.47
2019-05-12T01:02:42.929Z,21.63
2019-05-12T01:05:29.183Z,19.73
2019-05-12T01:08:09.946Z,21.63
2019-05-12T01:10:51.864Z,23.27
2019-05-12T01:13:33.023Z,22.20
2019-05-12T01:16:14.752Z,20.47
2019-05-12T01:18:58.466Z,18.23
2019-05-12T01:21:39.805Z,18.03
2019-05-12T01:24:21.050Z,19.73
2019-05-12T01:27:02.529Z,20.83
2019-05-12T01:29:44.014Z,19.73
2019-05-12T01:35:39.514Z,21.80
2019-05-12T01:38:20.662Z,20.63
2019-05-12T01:41:02.684Z,22.50
2019-05-12T01:43:32.058Z,22.23
2019-05-12T01:46:20.795Z,23.37
2019-05-12T01:49:02.055Z,20.60
2019-05-12T01:51:44.070Z,22.20
2019-05-12T01:54:27.699Z,20.50
2019-05-12T01:57:08.410Z,22.10
2019-05-12T01:59:49.947Z,20.30
2019-05-12T02:02:31.798Z,20.57
2019-05-12T02:05:13.579Z,21.23
2019-05-12T02:07:58.361Z,16.60
2019-05-12T02:10:39.211Z,18.00
2019-05-12T02:13:20.372Z,17.73
2019-05-12T02:16:02.266Z,17.27
2019-05-12T02:18:43.439Z,18.17
2019-05-12T02:21:27.790Z,15.50
2019-05-12T02:24:22.334Z,20.00
2019-05-12T02:26:51.644Z,19.50
2019-05-12T02:29:33.327Z,14.90
2019-05-12T02:32:15.369Z,16.13
2019-05-12T02:34:56.752Z,15.57
2019-05-12T02:37:38.476Z,19.57
2019-05-12T02:40:20.216Z,16.80
2019-05-12T02:42:59.920Z,15.73
2019-05-12T02:45:48.666Z,16.80
2019-05-12T02:48:29.955Z,16.20
2019-05-12T02:51:11.757Z,13.30
2019-05-12T02:53:54.563Z,13.77
2019-05-12T02:56:36.120Z,13.80
2019-05-12T02:59:17.838Z,13.53
2019-05-12T03:01:59.623Z,15.00
2019-05-12T03:04:45.166Z,10.37
2019-05-12T03:07:26.350Z,13.33
2019-05-12T03:10:08.197Z,12.10
2019-05-12T03:12:50.001Z,13.57
2019-05-12T03:15:31.313Z,11.93
2019-05-12T03:18:14.669Z,10.43
2019-05-12T03:20:55.631Z,11.23
2019-05-12T03:23:37.510Z,13.17
2019-05-12T03:26:19.473Z,12.93
2019-05-12T03:29:00.693Z,9.73
2019-05-12T03:31:47.893Z,15.03
2019-05-12T03:34:29.215Z,12.57
2019-05-12T03:37:09.820Z,12.67
2019-05-12T03:39:54.001Z,14.03
2019-05-12T03:42:35.477Z,12.37
2019-05-12T03:45:17.220Z,10.93
2019-05-12T03:47:59.062Z,11.00
2019-05-12T03:50:40.223Z,10.50
2019-05-12T03:53:24.395Z,11.57
2019-05-12T03:56:04.645Z,10.20
2019-05-12T03:58:45.265Z,14.57
2019-05-12T04:01:26.620Z,13.47
2019-05-12T04:04:08.586Z,10.17
2019-05-12T04:06:50.717Z,11.97
2019-05-12T04:09:34.752Z,9.90
2019-05-12T04:12:15.089Z,11.80
2019-05-12T04:14:56.694Z,11.73
2019-05-12T04:17:39.030Z,10.43
2019-05-12T04:20:20.785Z,15.67
2019-05-12T04:23:05.906Z,12.40
2019-05-12T04:25:52.384Z,11.23
2019-05-12T04:28:28.639Z,9.60
2019-05-12T04:31:10.493Z,7.83
2019-05-12T04:33:39.886Z,11.47
2019-05-12T04:36:28.580Z,10.03
2019-05-12T04:39:10.020Z,11.77
2019-05-12T04:41:54.993Z,9.07
2019-05-12T04:44:35.327Z,10.23
2019-05-12T04:47:16.773Z,11.53
2019-05-12T04:49:58.635Z,12.47
2019-05-12T04:52:40.602Z,11.13
2019-05-12T04:55:25.672Z,9.23
2019-05-12T04:58:05.386Z,9.37
2019-05-12T05:00:47.382Z,8.90
2019-05-12T05:03:28.583Z,9.63
2019-05-12T05:06:10.446Z,7.57
2019-05-12T05:08:54.416Z,6.57
2019-05-12T05:11:35.212Z,9.77
2019-05-12T05:14:17.189Z,6.97
2019-05-12T05:17:04.404Z,9.30
2019-05-12T05:19:44.466Z,9.83
2019-05-12T05:22:26.451Z,7.43
2019-05-12T05:24:55.826Z,13.90
2019-05-12T05:27:50.387Z,6.47
2019-05-12T05:30:33.936Z,11.53
2019-05-12T05:33:15.438Z,13.40
2019-05-12T05:35:57.210Z,8.37
2019-05-12T05:38:39.346Z,8.50
2019-05-12T05:41:21.234Z,8.43
2019-05-12T05:44:04.150Z,8.87
2019-05-12T05:46:50.014Z,7.73
2019-05-12T05:49:28.546Z,11.07
2019-05-12T05:52:10.396Z,8.70
2019-05-12T05:54:53.195Z,8.70
2019-05-12T05:57:34.603Z,11.47
2019-05-12T06:00:22.807Z,8.80
2019-05-12T06:03:00.181Z,9.37
2019-05-12T06:05:43.336Z,10.93
2019-05-12T06:08:24.596Z,10.13
2019-05-12T06:11:08.525Z,12.27
2019-05-12T06:13:50.057Z,7.27
2019-05-12T06:16:31.210Z,12.07
2019-05-12T06:19:14.103Z,7.77
2019-05-12T06:21:55.655Z,12.67
2019-05-12T06:24:37.660Z,7.70
2019-05-12T06:27:20.995Z,13.43
2019-05-12T06:30:05.944Z,10.00
2019-05-12T06:32:50.118Z,7.27
2019-05-12T06:35:30.878Z,7.07
2019-05-12T06:38:13.589Z,7.77
2019-05-12T06:40:55.654Z,7.47
2019-05-12T06:43:38.834Z,13.37
2019-05-12T06:46:22.904Z,8.13
2019-05-12T06:49:11.854Z,9.60
2019-05-12T06:51:47.398Z,8.13
2019-05-12T06:54:29.147Z,8.30
2019-05-12T06:57:24.114Z,8.40
2019-05-12T06:59:55.192Z,7.37
2019-05-12T07:02:49.112Z,8.67
2019-05-12T07:05:23.140Z,7.83
2019-05-12T07:08:04.408Z,5.77
2019-05-12T07:10:51.664Z,7.53
2019-05-12T07:13:29.673Z,9.50
2019-05-12T07:16:23.026Z,7.63
2019-05-12T07:19:22.870Z,5.97
2019-05-12T07:22:04.899Z,6.53
2019-05-12T07:24:50.041Z,9.53
2019-05-12T07:27:36.686Z,7.43
2019-05-12T07:30:13.707Z,6.67
2019-05-12T07:32:59.760Z,6.87
2019-05-12T07:35:38.327Z,4.87
2019-05-12T07:38:21.277Z,7.73
2019-05-12T07:41:08.804Z,5.87
2019-05-12T07:43:50.563Z,6.93
2019-05-12T07:46:29.724Z,8.17
2019-05-12T07:48:59.142Z,5.83
2019-05-12T07:51:50.030Z,4.83
2019-05-12T07:54:53.763Z,7.30
2019-05-12T07:57:36.628Z,6.73
2019-05-12T08:00:21.528Z,8.10
2019-05-12T08:03:14.344Z,7.53
2019-05-12T08:05:51.224Z,7.77
2019-05-12T08:08:33.957Z,6.30
2019-05-12T08:11:15.078Z,6.33
2019-05-12T08:13:56.712Z,7.93
2019-05-12T08:16:38.660Z,6.60
2019-05-12T08:19:23.780Z,5.40
2019-05-12T08:22:06.378Z,9.00
2019-05-12T08:24:48.226Z,6.87
2019-05-12T08:27:29.638Z,5.40
2019-05-12T08:30:13.757Z,5.47
2019-05-12T08:33:02.521Z,8.03
2019-05-12T08:35:38.632Z,5.40
2019-05-12T08:38:20.739Z,9.33
2019-05-12T08:41:04.089Z,9.30
2019-05-12T08:43:49.542Z,7.27
2019-05-12T08:46:28.679Z,5.73
2019-05-12T08:49:08.487Z,5.57
2019-05-12T08:52:00.085Z,8.70
2019-05-12T08:55:00.130Z,8.57
2019-05-12T08:57:49.270Z,6.77
2019-05-12T09:00:24.818Z,7.57
2019-05-12T09:03:06.814Z,5.30
2019-05-12T09:05:48.395Z,7.57
2019-05-12T09:08:29.580Z,7.53
2019-05-12T09:11:13.771Z,9.53
2019-05-12T09:14:00.654Z,5.03
2019-05-12T09:16:38.283Z,6.07
2019-05-12T09:19:24.210Z,6.13
2019-05-12T09:22:04.882Z,5.47
2019-05-12T09:24:46.790Z,5.73
2019-05-12T09:27:29.926Z,7.20
2019-05-12T09:30:11.282Z,8.60
2019-05-12T09:32:55.950Z,8.47
2019-05-12T09:35:39.191Z,4.53
2019-05-12T09:38:25.565Z,4.63
2019-05-12T09:41:05.258Z,5.20
2019-05-12T09:43:50.449Z,7.40
2019-05-12T09:46:34.254Z,6.40
2019-05-12T09:49:15.136Z,6.73
2019-05-12T09:51:57.032Z,6.37
2019-05-12T09:54:40.944Z,5.40
2019-05-12T09:57:23.858Z,6.47
2019-05-12T10:00:04.900Z,8.37
2019-05-12T10:02:51.260Z,6.93
2019-05-12T10:05:30.554Z,7.33
2019-05-12T10:08:13.872Z,5.63
2019-05-12T10:10:55.686Z,4.93
2019-05-12T10:13:36.831Z,6.43
2019-05-12T10:16:18.612Z,7.53
2019-05-12T10:19:00.592Z,7.27
2019-05-12T10:21:44.050Z,5.37
2019-05-12T10:24:13.160Z,6.63
2019-05-12T10:27:03.797Z,7.83
2019-05-12T10:30:11.846Z,5.90
2019-05-12T10:32:46.802Z,4.87
2019-05-12T10:35:28.799Z,5.20
2019-05-12T10:38:10.991Z,6.43
2019-05-12T10:40:53.570Z,6.53
2019-05-12T10:43:35.171Z,5.10
2019-05-12T10:46:18.471Z,6.00
2019-05-12T10:49:00.005Z,3.93
2019-05-12T10:51:43.775Z,7.57
2019-05-12T10:54:24.555Z,4.77
2019-05-12T10:57:05.932Z,6.00
2019-05-12T10:59:48.600Z,5.03
2019-05-12T11:02:30.831Z,5.67
2019-05-12T11:05:21.456Z,6.13
2019-05-12T11:08:00.337Z,5.43
2019-05-12T11:10:39.366Z,4.20
2019-05-12T11:13:23.244Z,5.00
2019-05-12T11:16:04.497Z,6.03
2019-05-12T11:18:45.672Z,7.17
2019-05-12T11:21:27.145Z,3.47
2019-05-12T11:24:09.190Z,4.10
2019-05-12T11:26:51.013Z,4.43
2019-05-12T11:29:45.773Z,3.67
2019-05-12T11:32:18.304Z,4.20
2019-05-12T11:34:59.557Z,4.40
2019-05-12T11:37:41.334Z,4.33
2019-05-12T11:40:23.860Z,2.47
2019-05-12T11:43:05.873Z,4.67
2019-05-12T11:45:47.731Z,5.67
2019-05-12T11:48:29.039Z,3.20
2019-05-12T11:51:10.846Z,3.57
2019-05-12T11:53:52.861Z,2.73
2019-05-12T11:56:34.937Z,1.93
2019-05-12T11:59:16.850Z,2.80
2019-05-12T12:01:58.215Z,5.57
2019-05-12T12:04:46.012Z,5.80
2019-05-12T12:07:29.552Z,2.67
2019-05-12T12:10:10.967Z,3.23
2019-05-12T12:12:47.178Z,2.50
2019-05-12T12:15:36.317Z,2.80
2019-05-12T12:18:17.489Z,2.73
2019-05-12T12:21:04.222Z,2.83
2019-05-12T12:23:30.608Z,2.90
2019-05-12T12:26:38.540Z,3.13
2019-05-12T12:29:20.509Z,2.03
2019-05-12T12:32:01.722Z,3.93
2019-05-12T12:34:44.077Z,2.77
2019-05-12T12:37:25.796Z,2.60
2019-05-12T12:40:07.237Z,3.47
2019-05-12T12:42:48.387Z,3.43
2019-05-12T12:45:49.240Z,3.77
2019-05-12T12:48:30.813Z,3.67
2019-05-12T12:51:17.225Z,3.57
2019-05-12T12:53:55.633Z,3.63
2019-05-12T12:56:37.441Z,2.92
2019-05-12T12:59:19.948Z,1.82
2019-05-12T13:04:48.383Z,2.60
2019-05-12T13:07:30.321Z,1.77
2019-05-12T13:10:17.150Z,3.50
2019-05-12T13:13:01.024Z,2.08
2019-05-12T13:15:44.349Z,2.10
2019-05-12T13:18:33.173Z,2.58
2019-05-12T13:21:08.758Z,4.15
2019-05-12T13:23:51.171Z,1.82
2019-05-12T13:26:35.904Z,2.52
2019-05-12T13:29:18.261Z,3.55
2019-05-12T13:31:59.492Z,2.47
2019-05-12T13:34:43.019Z,4.22
2019-05-12T13:37:25.429Z,2.70
2019-05-12T13:40:07.748Z,4.47
2019-05-12T13:42:49.771Z,2.65
2019-05-12T13:45:33.448Z,2.17
2019-05-12T13:48:19.673Z,2.65
2019-05-12T13:51:07.490Z,1.87
2019-05-12T13:53:48.479Z,2.95
2019-05-12T13:56:32.347Z,2.65
2019-05-12T13:59:12.212Z,2.27
2019-05-12T14:01:53.919Z,1.67
2019-05-12T14:04:36.368Z,4.40
2019-05-12T14:07:20.278Z,1.65
2019-05-12T14:10:03.465Z,2.35
2019-05-12T14:12:44.411Z,2.45
2019-05-12T14:15:25.705Z,2.65
2019-05-12T14:18:10.347Z,1.90
2019-05-12T14:20:58.829Z,2.57
2019-05-12T14:23:35.260Z,2.10
2019-05-12T14:26:16.708Z,3.97
2019-05-12T14:28:57.811Z,3.50
2019-05-12T14:31:45.307Z,2.30
2019-05-12T14:34:23.625Z,2.83
2019-05-12T14:37:10.238Z,1.97
2019-05-12T14:39:50.463Z,1.93
2019-05-12T14:42:34.679Z,3.37
2019-05-12T14:45:25.674Z,1.57
2019-05-12T14:48:09.480Z,1.90
2019-05-12T14:50:50.819Z,2.53
2019-05-12T14:53:32.994Z,3.63
2019-05-12T14:56:14.940Z,2.17
2019-05-12T14:59:00.603Z,2.53
2019-05-12T15:01:56.559Z,1.63
2019-05-12T15:04:29.543Z,2.50
2019-05-12T15:07:09.938Z,2.33
2019-05-12T15:09:53.869Z,2.00
2019-05-12T15:12:36.510Z,2.83
2019-05-12T15:15:20.436Z,4.93
2019-05-12T15:18:03.441Z,1.53
2019-05-12T15:20:49.808Z,2.63
2019-05-12T15:23:32.431Z,1.73
2019-05-12T15:26:14.927Z,1.70
2019-05-12T15:28:54.251Z,1.37
2019-05-12T15:31:35.390Z,2.57
2019-05-12T15:34:16.700Z,4.47
2019-05-12T15:37:00.351Z,2.93
2019-05-12T15:39:43.928Z,2.33
2019-05-12T15:42:25.327Z,1.33
2019-05-12T15:45:12.568Z,1.23
2019-05-12T15:47:50.269Z,1.23
2019-05-12T15:50:34.049Z,3.67
2019-05-12T15:53:22.089Z,2.37
2019-05-12T15:55:57.509Z,1.70
2019-05-12T15:58:39.464Z,1.47
2019-05-12T16:01:21.439Z,1.43
2019-05-12T16:04:03.674Z,2.25
2019-05-12T16:06:53.354Z,2.25
2019-05-12T16:09:30.031Z,1.37
2019-05-12T16:12:19.943Z,1.30
2019-05-12T16:14:55.679Z,1.60
2019-05-12T16:17:37.191Z,3.08
2019-05-12T16:20:19.559Z,2.20
2019-05-12T16:23:03.857Z,2.20
2019-05-12T16:25:45.580Z,2.55
2019-05-12T16:28:27.529Z,2.97
2019-05-12T16:31:09.459Z,2.30
2019-05-12T16:33:52.909Z,3.43
2019-05-12T16:36:35.111Z,2.80
2019-05-12T16:39:16.496Z,1.30
2019-05-12T16:42:00.075Z,1.13
2019-05-12T16:44:44.001Z,1.30
2019-05-12T16:47:29.178Z,2.20
2019-05-12T16:50:15.300Z,1.67
2019-05-12T16:52:53.594Z,3.43
2019-05-12T16:55:44.863Z,3.23
2019-05-12T16:58:26.169Z,1.47
2019-05-12T17:01:03.619Z,2.63
2019-05-12T17:03:44.614Z,2.93
2019-05-12T17:06:28.601Z,1.83
2019-05-12T17:09:09.596Z,1.87
2019-05-12T17:11:53.335Z,1.77
2019-05-12T17:14:38.760Z,2.33
2019-05-12T17:17:21.009Z,3.23
2019-05-12T17:20:04.528Z,2.63
2019-05-12T17:22:54.561Z,2.60
2019-05-12T17:25:29.222Z,2.63
2019-05-12T17:28:13.118Z,2.90
2019-05-12T17:30:54.628Z,2.73
2019-05-12T17:33:39.059Z,1.10
2019-05-12T17:36:24.246Z,2.20
2019-05-12T17:39:06.295Z,1.10
2019-05-12T17:41:47.681Z,2.23
2019-05-12T17:44:31.130Z,1.53
2019-05-12T17:47:21.393Z,2.50
2019-05-12T17:50:00.418Z,2.67
2019-05-12T17:52:39.672Z,1.10
2019-05-12T17:55:20.773Z,2.50
2019-05-12T17:58:04.084Z,2.07
2019-05-12T18:00:47.699Z,2.03
2019-05-12T18:03:29.623Z,1.33
2019-05-12T18:06:11.137Z,2.70
2019-05-12T18:08:53.393Z,6.80
2019-05-12T18:11:34.594Z,2.83
2019-05-12T18:14:16.684Z,3.47
2019-05-12T18:17:02.365Z,2.23
2019-05-12T18:19:44.262Z,4.40
2019-05-12T18:22:24.771Z,2.23
2019-05-12T18:25:06.632Z,3.43
2019-05-12T18:27:50.534Z,2.70
2019-05-12T18:30:30.721Z,1.47
2019-05-12T18:33:13.741Z,2.77
2019-05-12T18:35:55.663Z,2.30
2019-05-12T18:38:37.663Z,2.83
2019-05-12T18:41:18.969Z,2.97
2019-05-12T18:44:00.885Z,2.30
2019-05-12T18:46:45.298Z,2.60
2019-05-12T18:49:25.668Z,1.80
2019-05-12T18:52:07.822Z,1.67
2019-05-12T18:54:52.180Z,2.30
2019-05-12T18:57:33.775Z,1.80
2019-05-12T19:00:16.278Z,1.80
2019-05-12T19:02:59.736Z,2.20
2019-05-12T19:05:43.323Z,1.70
2019-05-12T19:08:24.468Z,1.93
2019-05-12T19:11:19.961Z,1.40
2019-05-12T19:13:56.984Z,2.67
2019-05-12T19:16:36.821Z,3.20
2019-05-12T19:19:20.031Z,1.30
2019-05-12T19:22:06.800Z,1.43
2019-05-12T19:24:44.490Z,2.33
2019-05-12T19:27:26.319Z,1.90
2019-05-12T19:30:08.319Z,2.60
2019-05-12T19:32:52.510Z,2.63
2019-05-12T19:35:34.157Z,1.27
2019-05-12T19:38:16.256Z,3.40
2019-05-12T19:41:00.759Z,3.13
2019-05-12T19:43:45.473Z,1.40
2019-05-12T19:46:24.265Z,2.53
2019-05-12T19:49:05.998Z,1.47
2019-05-12T19:51:47.774Z,1.33
2019-05-12T19:54:32.133Z,1.57
2019-05-12T19:57:21.511Z,2.27
2019-05-12T19:59:56.678Z,1.83
2019-05-12T20:02:38.249Z,3.77
2019-05-12T20:05:19.849Z,2.67
2019-05-12T20:08:03.996Z,3.07
2019-05-12T20:10:49.380Z,2.50
2019-05-12T20:13:35.921Z,4.13
2019-05-12T20:16:21.543Z,2.77
2019-05-12T20:18:58.135Z,2.60
2019-05-12T20:21:40.014Z,1.97
2019-05-12T20:24:23.166Z,4.03
2019-05-12T20:27:04.828Z,1.83
2019-05-12T20:29:46.618Z,3.40
2019-05-12T20:32:28.060Z,1.90
2019-05-12T20:35:09.641Z,1.83
2019-05-12T20:37:54.317Z,1.80
2019-05-12T20:40:37.674Z,1.70
2019-05-12T20:43:18.289Z,1.63
2019-05-12T20:46:00.294Z,3.47
2019-05-12T20:48:44.500Z,2.83
2019-05-12T20:51:25.272Z,2.37
2019-05-12T20:54:14.131Z,1.87
2019-05-12T20:56:52.948Z,1.80
2019-05-12T20:59:34.430Z,1.80
2019-05-12T21:02:16.223Z,2.40
2019-05-12T21:05:01.147Z,2.87
2019-05-12T21:07:40.449Z,3.70
2019-05-12T21:10:26.493Z,1.63
2019-05-12T21:13:07.273Z,3.37
2019-05-12T21:15:48.722Z,3.37
2019-05-12T21:18:44.604Z,3.63
2019-05-12T21:21:14.343Z,1.83
2019-05-12T21:23:59.327Z,2.60
2019-05-12T21:26:38.664Z,2.80
2019-05-12T21:29:25.537Z,3.63
2019-05-12T21:32:12.265Z,2.83
2019-05-12T21:34:46.455Z,2.33
2019-05-12T21:37:28.526Z,3.00
2019-05-12T21:40:10.562Z,1.93
2019-05-12T21:42:53.708Z,2.10
2019-05-12T21:45:35.279Z,3.63
2019-05-12T21:48:23.654Z,2.97
2019-05-12T21:50:59.464Z,1.67
2019-05-12T21:53:43.595Z,1.97
2019-05-12T21:56:24.543Z,2.40
2019-05-12T21:59:05.922Z,1.70
2019-05-12T22:01:47.897Z,2.20
2019-05-12T22:04:32.972Z,2.00
2019-05-12T22:07:15.044Z,2.67
2019-05-12T22:09:57.741Z,1.90
2019-05-12T22:12:39.377Z,2.77
2019-05-12T22:15:24.631Z,2.47
2019-05-12T22:18:06.221Z,1.30
2019-05-12T22:20:52.310Z,1.50
2019-05-12T22:23:31.103Z,2.67
2019-05-12T22:26:12.970Z,1.93
2019-05-12T22:28:54.970Z,2.47
2019-05-12T22:31:38.687Z,3.47
2019-05-12T22:34:20.625Z,3.03
2019-05-12T22:37:03.862Z,4.63
2019-05-12T22:39:45.459Z,2.77
2019-05-12T22:42:27.040Z,2.43
2019-05-12T22:45:08.709Z,2.20
2019-05-12T22:47:55.214Z,1.63
2019-05-12T22:50:35.274Z,3.33
2019-05-12T22:53:19.328Z,2.20
2019-05-12T22:56:02.997Z,3.73
2019-05-12T22:58:44.221Z,1.93
2019-05-12T23:01:25.779Z,2.33
2019-05-12T23:04:07.835Z,2.13
2019-05-12T23:06:49.662Z,2.80
2019-05-12T23:09:33.747Z,2.40
2019-05-12T23:12:18.079Z,6.03
2019-05-12T23:15:02.814Z,3.73
2019-05-12T23:17:45.237Z,2.97
2019-05-12T23:20:25.493Z,3.37
2019-05-12T23:23:09.142Z,2.17
2019-05-12T23:25:52.022Z,7.63
2019-05-12T23:28:21.788Z,2.10
2019-05-12T23:31:10.559Z,2.13
2019-05-12T23:33:51.715Z,2.87
2019-05-12T23:36:36.476Z,2.67
2019-05-12T23:39:15.835Z,3.43
2019-05-12T23:41:57.714Z,2.10
2019-05-12T23:44:44.023Z,2.43
2019-05-12T23:47:24.355Z,2.63
2019-05-12T23:50:05.691Z,2.27
2019-05-12T23:52:47.127Z,2.63
2019-05-12T23:55:29.036Z,2.20
2019-05-12T23:58:11.013Z,4.37
